Woodbranch, Texas
Current Conditions -  °F | °C
As of 9:53 AM on Thursday 27 Nov 2014 (Local Time) from KIAH Reporting Station
Clear Clear  
Wind Chill: 56°   Ceiling: Unl
Heat Index: 56°   Visibility: 10mi
Dew Point: 32°   Wind: 9mph
Humidity: 40%   Direction: 60°ENE
Pressure: 30.51"   Gusts: NA
Location:  30.1594°N, 95.1973°W
Report Text: KIAH 271553Z 06008KT 10SM CLR 13/00 A3051 RMK AO2 SLP333 T01330000
Loading
Personal Weather Stations






























Interactive Weather Map New forecast layout! Learn more

10-Day Weather Forecast

Advertisements
Track Severe Weather on mobile